createdAt,value
2022-12-11T00:01:10.052Z,34.30
2022-12-11T00:03:41.935Z,34.90
2022-12-11T00:06:12.912Z,36.00
2022-12-11T00:08:40.863Z,33.90
2022-12-11T00:11:16.025Z,28.70
2022-12-11T00:13:44.366Z,31.30
2022-12-11T00:16:12.349Z,35.10
2022-12-11T00:18:41.130Z,28.10
2022-12-11T00:21:13.090Z,29.30
2022-12-11T00:23:41.494Z,32.20
2022-12-11T00:26:14.810Z,39.00
2022-12-11T00:28:43.716Z,38.60
2022-12-11T00:31:17.992Z,35.00
2022-12-11T00:33:49.191Z,37.00
2022-12-11T00:36:23.862Z,34.80
2022-12-11T00:38:53.902Z,37.10
2022-12-11T00:41:21.959Z,34.20
2022-12-11T00:43:50.253Z,33.30
2022-12-11T00:46:18.802Z,34.40
2022-12-11T00:48:46.805Z,30.60
2022-12-11T00:51:14.755Z,34.00
2022-12-11T00:53:42.978Z,35.70
2022-12-11T00:56:17.128Z,26.60
2022-12-11T00:58:46.599Z,37.10
2022-12-11T01:01:19.399Z,31.00
2022-12-11T01:03:48.222Z,37.00
2022-12-11T01:06:18.192Z,37.90
2022-12-11T01:08:47.121Z,39.60
2022-12-11T01:11:16.790Z,37.30
2022-12-11T01:13:44.683Z,36.40
2022-12-11T01:16:17.354Z,36.90
2022-12-11T01:18:45.511Z,32.70
2022-12-11T01:21:13.793Z,31.60
2022-12-11T01:23:41.837Z,34.00
2022-12-11T01:26:15.252Z,35.00
2022-12-11T01:28:44.220Z,33.80
2022-12-11T01:31:14.595Z,29.80
2022-12-11T01:33:42.946Z,32.90
2022-12-11T01:36:14.468Z,34.30
2022-12-11T01:38:42.814Z,33.20
2022-12-11T01:41:10.982Z,36.50
2022-12-11T01:44:05.866Z,38.20
2022-12-11T01:46:36.142Z,35.20
2022-12-11T01:49:08.788Z,31.90
2022-12-11T01:51:42.562Z,32.70
2022-12-11T01:54:13.219Z,32.20
2022-12-11T01:56:43.703Z,32.50
2022-12-11T01:59:15.046Z,36.70
2022-12-11T02:01:51.252Z,34.10
2022-12-11T02:04:20.393Z,38.80
2022-12-11T02:06:51.949Z,40.00
2022-12-11T02:09:24.919Z,35.00
2022-12-11T02:12:16.675Z,39.00
2022-12-11T02:15:01.600Z,47.70
2022-12-11T02:17:38.653Z,41.20
2022-12-11T02:20:26.944Z,39.00
2022-12-11T02:23:13.573Z,42.20
2022-12-11T02:25:47.894Z,41.30
2022-12-11T02:28:38.715Z,38.10
2022-12-11T02:31:39.214Z,35.80
2022-12-11T02:34:15.565Z,36.00
2022-12-11T02:36:49.089Z,36.00
2022-12-11T02:39:19.331Z,31.30
2022-12-11T02:41:50.262Z,33.60
2022-12-11T02:44:24.328Z,31.30
2022-12-11T02:46:54.127Z,28.60
2022-12-11T02:49:24.547Z,34.20
2022-12-11T02:51:54.870Z,30.70
2022-12-11T02:54:28.720Z,29.80
2022-12-11T02:57:27.366Z,35.20
2022-12-11T02:59:55.501Z,33.40
2022-12-11T03:02:23.720Z,31.40
2022-12-11T03:04:51.778Z,28.80
2022-12-11T03:07:25.613Z,30.60
2022-12-11T03:09:53.658Z,32.60
2022-12-11T03:12:28.164Z,27.80
2022-12-11T03:14:59.537Z,31.60
2022-12-11T03:17:38.814Z,33.40
2022-12-11T03:20:18.159Z,38.10
2022-12-11T03:22:52.980Z,35.90
2022-12-11T03:25:26.151Z,34.20
2022-12-11T03:27:59.738Z,35.20
2022-12-11T03:30:29.511Z,36.30
2022-12-11T03:33:24.786Z,38.40
2022-12-11T03:35:56.761Z,33.20
2022-12-11T03:38:36.557Z,38.90
2022-12-11T03:41:07.337Z,37.40
2022-12-11T03:43:36.465Z,40.90
2022-12-11T03:46:05.660Z,40.00
2022-12-11T03:48:37.025Z,39.20
2022-12-11T03:51:07.891Z,42.70
2022-12-11T03:53:37.650Z,45.20
2022-12-11T03:56:09.422Z,44.00
2022-12-11T03:58:38.766Z,37.20
2022-12-11T04:01:11.686Z,43.10
2022-12-11T04:03:39.598Z,41.60
2022-12-11T04:06:07.907Z,41.20
2022-12-11T04:08:35.961Z,36.60
2022-12-11T04:11:23.753Z,36.40
2022-12-11T04:14:11.615Z,35.50
2022-12-11T04:16:39.895Z,39.10
2022-12-11T04:19:28.829Z,37.50
2022-12-11T04:22:15.593Z,34.50
2022-12-11T04:24:43.669Z,35.60
2022-12-11T04:27:11.575Z,34.60
2022-12-11T04:29:39.384Z,36.70
2022-12-11T04:32:07.317Z,31.20
2022-12-11T04:34:35.477Z,29.10
2022-12-11T04:37:03.389Z,35.40
2022-12-11T04:39:31.443Z,33.60
2022-12-11T04:41:59.664Z,33.60
2022-12-11T04:44:27.462Z,28.00
2022-12-11T04:46:55.339Z,35.10
2022-12-11T04:49:23.299Z,48.60
2022-12-11T04:51:51.091Z,35.60
2022-12-11T04:54:18.992Z,28.90
2022-12-11T04:56:47.030Z,32.30
2022-12-11T04:59:14.959Z,31.30
2022-12-11T05:01:42.917Z,36.00
2022-12-11T05:04:11.045Z,33.00
2022-12-11T05:06:39.036Z,34.90
2022-12-11T05:09:10.691Z,36.10
2022-12-11T05:11:38.819Z,38.00
2022-12-11T05:14:06.685Z,39.90
2022-12-11T05:16:34.909Z,38.30
2022-12-11T05:19:02.846Z,38.40
2022-12-11T05:21:34.972Z,32.60
2022-12-11T05:24:03.707Z,36.90
2022-12-11T05:26:31.733Z,34.40
2022-12-11T05:28:59.554Z,31.60
2022-12-11T05:31:28.556Z,35.20
2022-12-11T05:33:56.550Z,39.60
2022-12-11T05:36:33.487Z,32.00
2022-12-11T05:39:02.187Z,31.80
2022-12-11T05:41:31.610Z,33.90
2022-12-11T05:44:00.205Z,26.40
2022-12-11T05:46:29.974Z,30.40
2022-12-11T05:49:00.912Z,25.10
2022-12-11T05:51:30.104Z,25.70
2022-12-11T05:54:00.815Z,26.10
2022-12-11T05:56:32.446Z,19.20
2022-12-11T05:59:02.253Z,29.80
2022-12-11T06:01:42.530Z,25.60
2022-12-11T06:04:12.516Z,21.70
2022-12-11T06:06:41.406Z,27.50
2022-12-11T06:09:14.057Z,23.90
2022-12-11T06:11:42.704Z,27.10
2022-12-11T06:14:11.501Z,26.30
2022-12-11T06:16:39.782Z,27.50
2022-12-11T06:19:14.597Z,28.20
2022-12-11T06:21:42.626Z,22.00
2022-12-11T06:24:12.773Z,25.40
2022-12-11T06:26:40.929Z,22.30
2022-12-11T06:29:12.606Z,20.50
2022-12-11T06:31:41.030Z,24.20
2022-12-11T06:34:13.996Z,24.70
2022-12-11T06:36:42.018Z,23.00
2022-12-11T06:39:09.876Z,20.70
2022-12-11T06:41:38.223Z,21.30
2022-12-11T06:44:06.272Z,25.70
2022-12-11T06:46:34.155Z,24.80
2022-12-11T06:49:02.131Z,22.70
2022-12-11T06:51:31.307Z,24.60
2022-12-11T06:53:59.137Z,24.90
2022-12-11T06:56:27.149Z,22.40
2022-12-11T06:58:57.176Z,20.60
2022-12-11T07:01:27.716Z,23.10
2022-12-11T07:03:58.026Z,17.90
2022-12-11T07:06:27.600Z,26.00
2022-12-11T07:08:55.900Z,22.40
2022-12-11T07:11:24.460Z,21.90
2022-12-11T07:13:52.361Z,22.10
2022-12-11T07:16:20.357Z,21.10
2022-12-11T07:18:50.807Z,22.60
2022-12-11T07:21:20.317Z,24.80
2022-12-11T07:23:49.295Z,22.60
2022-12-11T07:26:20.084Z,25.10
2022-12-11T07:28:48.982Z,25.20
2022-12-11T07:31:23.424Z,23.60
2022-12-11T07:33:59.311Z,17.70
2022-12-11T07:36:28.697Z,19.30
2022-12-11T07:38:57.245Z,21.70
2022-12-11T07:41:25.417Z,18.80
2022-12-11T07:43:56.726Z,18.80
2022-12-11T07:46:28.204Z,32.10
2022-12-11T07:48:56.260Z,24.20
2022-12-11T07:51:32.774Z,27.30
2022-12-11T07:54:06.921Z,24.00
2022-12-11T07:56:35.472Z,21.10
2022-12-11T07:59:06.009Z,19.90
2022-12-11T08:01:36.727Z,19.20
2022-12-11T08:04:06.879Z,16.90
2022-12-11T08:06:37.034Z,17.90
2022-12-11T08:09:07.649Z,22.40
2022-12-11T08:11:38.421Z,19.10
2022-12-11T08:14:09.809Z,19.50
2022-12-11T08:16:39.144Z,18.30
2022-12-11T08:19:07.104Z,22.10
2022-12-11T08:21:35.119Z,22.90
2022-12-11T08:24:04.287Z,19.10
2022-12-11T08:26:33.094Z,19.60
2022-12-11T08:29:02.193Z,23.30
2022-12-11T08:31:30.768Z,18.90
2022-12-11T08:33:59.108Z,18.90
2022-12-11T08:36:27.189Z,21.50
2022-12-11T08:38:56.460Z,40.50
2022-12-11T08:41:30.976Z,21.30
2022-12-11T08:44:00.443Z,20.20
2022-12-11T08:46:31.380Z,20.80
2022-12-11T08:49:00.159Z,20.20
2022-12-11T08:51:30.390Z,17.60
2022-12-11T08:54:01.123Z,20.10
2022-12-11T08:56:29.658Z,18.60
2022-12-11T08:59:01.137Z,18.60
2022-12-11T09:01:29.598Z,28.50
2022-12-11T09:03:57.828Z,21.70
2022-12-11T09:06:28.217Z,26.20
2022-12-11T09:08:59.926Z,28.10
2022-12-11T09:11:31.379Z,30.30
2022-12-11T09:14:05.141Z,21.60
2022-12-11T09:16:39.977Z,21.60
2022-12-11T09:19:11.913Z,23.50
2022-12-11T09:21:43.690Z,18.40
2022-12-11T09:24:13.382Z,17.80
2022-12-11T09:26:41.979Z,19.20
2022-12-11T09:29:12.108Z,20.00
2022-12-11T09:31:40.556Z,19.70
2022-12-11T09:34:12.789Z,21.30
2022-12-11T09:36:42.317Z,19.40
2022-12-11T09:39:13.101Z,19.70
2022-12-11T09:42:15.169Z,20.60
2022-12-11T09:44:46.551Z,28.60
2022-12-11T09:47:22.547Z,60.30
2022-12-11T09:50:10.618Z,50.60
2022-12-11T09:52:50.892Z,40.70
2022-12-11T09:55:24.922Z,35.90
2022-12-11T09:58:21.107Z,29.80
2022-12-11T10:01:06.292Z,21.70
2022-12-11T10:03:52.617Z,22.20
2022-12-11T10:06:25.920Z,26.50
2022-12-11T10:08:59.761Z,17.80
2022-12-11T10:11:41.124Z,18.90
2022-12-11T10:14:27.526Z,20.30
2022-12-11T10:17:02.664Z,23.20
2022-12-11T10:19:32.647Z,19.20
2022-12-11T10:22:01.845Z,17.00
2022-12-11T10:25:13.242Z,19.20
2022-12-11T10:27:41.378Z,19.80
2022-12-11T10:30:23.919Z,23.80
2022-12-11T10:32:53.816Z,21.40
2022-12-11T10:35:51.105Z,18.10
2022-12-11T10:38:31.159Z,20.50
2022-12-11T10:41:12.065Z,19.60
2022-12-11T10:43:49.323Z,18.90
2022-12-11T10:46:28.256Z,20.00
2022-12-11T10:49:00.130Z,19.60
2022-12-11T10:51:31.043Z,17.20
2022-12-11T10:54:17.497Z,21.70
2022-12-11T10:56:48.694Z,20.00
2022-12-11T10:59:24.561Z,16.70
2022-12-11T11:01:53.956Z,18.40
2022-12-11T11:04:32.012Z,22.70
2022-12-11T11:07:13.587Z,21.70
2022-12-11T11:09:41.772Z,18.90
2022-12-11T11:12:26.677Z,20.20
2022-12-11T11:15:00.748Z,22.10
2022-12-11T11:17:34.868Z,22.00
2022-12-11T11:20:14.369Z,19.30
2022-12-11T11:22:47.421Z,20.00
2022-12-11T11:25:22.043Z,17.70
2022-12-11T11:27:56.967Z,22.90
2022-12-11T11:30:31.713Z,23.10
2022-12-11T11:33:05.540Z,28.20
2022-12-11T11:35:33.787Z,26.70
2022-12-11T11:38:18.051Z,27.60
2022-12-11T11:40:53.791Z,25.10
2022-12-11T11:43:37.213Z,28.90
2022-12-11T11:46:20.204Z,25.40
2022-12-11T11:49:15.689Z,25.60
2022-12-11T11:51:50.594Z,20.90
2022-12-11T11:54:41.257Z,27.10
2022-12-11T11:57:18.221Z,25.00
2022-12-11T12:00:10.035Z,20.60
2022-12-11T12:02:42.114Z,26.80
2022-12-11T12:05:13.876Z,26.30
2022-12-11T12:07:44.981Z,22.00
2022-12-11T12:10:22.547Z,22.50
2022-12-11T12:13:47.574Z,23.50
2022-12-11T12:16:22.972Z,25.50
2022-12-11T12:19:16.601Z,36.30
2022-12-11T12:21:50.300Z,27.30
2022-12-11T12:24:45.897Z,22.30
2022-12-11T12:27:51.552Z,22.20
2022-12-11T12:30:22.489Z,21.40
2022-12-11T12:33:00.917Z,23.40
2022-12-11T12:35:55.528Z,18.40
2022-12-11T12:38:35.500Z,21.80
2022-12-11T12:41:14.405Z,21.20
2022-12-11T12:44:11.742Z,19.30
2022-12-11T12:47:00.270Z,17.30
2022-12-11T12:49:35.835Z,17.20
2022-12-11T12:52:06.894Z,16.50
2022-12-11T12:54:36.978Z,14.60
2022-12-11T12:57:08.387Z,16.60
2022-12-11T12:59:36.411Z,16.10
2022-12-11T13:02:06.595Z,24.30
2022-12-11T13:04:59.153Z,18.60
2022-12-11T13:07:30.904Z,21.50
2022-12-11T13:10:23.289Z,20.50
2022-12-11T13:12:52.362Z,19.40
2022-12-11T13:15:25.277Z,20.20
2022-12-11T13:17:54.547Z,25.00
2022-12-11T13:20:25.855Z,16.60
2022-12-11T13:23:19.328Z,17.80
2022-12-11T13:25:51.834Z,20.40
2022-12-11T13:28:24.321Z,17.50
2022-12-11T13:31:34.034Z,17.30
2022-12-11T13:34:18.682Z,15.90
2022-12-11T13:36:50.255Z,21.60
2022-12-11T13:39:27.638Z,22.40
2022-12-11T13:41:59.959Z,19.10
2022-12-11T13:44:31.348Z,23.40
2022-12-11T13:47:02.375Z,19.00
2022-12-11T13:49:36.573Z,19.20
2022-12-11T13:52:05.510Z,19.00
2022-12-11T13:54:36.657Z,21.70
2022-12-11T13:57:07.476Z,21.40
2022-12-11T13:59:39.025Z,31.10
2022-12-11T14:02:16.057Z,26.20
2022-12-11T14:04:45.066Z,31.10
2022-12-11T14:07:13.080Z,40.10
2022-12-11T14:09:45.924Z,59.70
2022-12-11T14:12:20.591Z,53.90
2022-12-11T14:14:55.181Z,30.80
2022-12-11T14:17:30.266Z,32.10
2022-12-11T14:20:00.719Z,32.80
2022-12-11T14:22:30.556Z,47.70
2022-12-11T14:25:02.954Z,41.30
2022-12-11T14:27:31.313Z,46.80
2022-12-11T14:30:11.437Z,29.00
2022-12-11T14:32:44.697Z,29.60
2022-12-11T14:35:24.847Z,26.50
2022-12-11T14:37:55.665Z,19.90
2022-12-11T14:40:30.364Z,22.60
2022-12-11T14:43:09.559Z,15.60
2022-12-11T14:45:40.416Z,24.30
2022-12-11T14:48:17.099Z,26.30
2022-12-11T14:50:50.311Z,22.30
2022-12-11T14:53:27.031Z,29.50
2022-12-11T14:55:58.166Z,20.30
2022-12-11T14:58:27.410Z,19.80
2022-12-11T15:01:02.551Z,19.40
2022-12-11T15:03:36.604Z,20.50
2022-12-11T15:06:26.171Z,17.80
2022-12-11T15:08:54.299Z,21.00
2022-12-11T15:11:24.765Z,18.10
2022-12-11T15:14:00.855Z,17.90
2022-12-11T15:16:33.200Z,20.80
2022-12-11T15:19:02.328Z,19.40
2022-12-11T15:21:36.052Z,25.20
2022-12-11T15:24:07.262Z,20.70
2022-12-11T15:26:44.621Z,23.50
2022-12-11T15:29:38.842Z,19.00
2022-12-11T15:32:09.955Z,16.90
2022-12-11T15:34:55.630Z,15.70
2022-12-11T15:37:27.921Z,14.70
2022-12-11T15:39:59.222Z,14.50
2022-12-11T15:42:31.642Z,13.40
2022-12-11T15:44:59.989Z,13.80
2022-12-11T15:47:31.299Z,15.10
2022-12-11T15:50:02.382Z,14.80
2022-12-11T15:52:31.270Z,16.00
2022-12-11T15:55:01.941Z,17.60
2022-12-11T15:57:30.638Z,17.20
2022-12-11T15:59:58.797Z,13.70
2022-12-11T16:02:28.230Z,17.30
2022-12-11T16:04:57.818Z,17.70
2022-12-11T16:14:01.310Z,19.30
2022-12-11T16:16:32.206Z,20.30
2022-12-11T16:19:01.054Z,17.30
2022-12-11T16:21:28.927Z,17.90
2022-12-11T16:23:57.180Z,17.80
2022-12-11T16:26:26.101Z,21.80
2022-12-11T16:28:54.069Z,19.80
2022-12-11T16:31:24.440Z,20.00
2022-12-11T16:33:56.383Z,13.00
2022-12-11T16:36:24.423Z,19.20
2022-12-11T16:38:55.538Z,20.80
2022-12-11T16:41:23.667Z,17.70
2022-12-11T16:43:51.830Z,19.20
2022-12-11T16:46:25.478Z,17.30
2022-12-11T16:48:53.946Z,20.60
2022-12-11T16:51:22.104Z,22.00
2022-12-11T16:53:50.108Z,23.10
2022-12-11T16:56:18.586Z,24.20
2022-12-11T16:58:47.807Z,22.90
2022-12-11T17:01:16.537Z,21.00
2022-12-11T17:03:47.073Z,22.90
2022-12-11T17:06:17.847Z,22.30
2022-12-11T17:08:46.421Z,25.30
2022-12-11T17:11:17.250Z,23.00
2022-12-11T17:13:45.429Z,23.20
2022-12-11T17:16:16.656Z,22.10
2022-12-11T17:18:45.032Z,20.20
2022-12-11T17:21:17.232Z,19.20
2022-12-11T17:23:45.735Z,18.70
2022-12-11T17:26:13.871Z,17.00
2022-12-11T17:28:43.847Z,20.60
2022-12-11T17:31:21.007Z,22.20
2022-12-11T17:33:50.212Z,20.80
2022-12-11T17:36:20.964Z,21.90
2022-12-11T17:38:52.305Z,21.60
2022-12-11T17:41:22.051Z,22.80
2022-12-11T17:43:52.282Z,19.20
2022-12-11T17:46:21.131Z,25.10
2022-12-11T17:48:49.386Z,22.10
2022-12-11T17:51:24.165Z,20.90
2022-12-11T17:53:56.231Z,21.00
2022-12-11T17:56:25.411Z,26.60
2022-12-11T17:58:53.705Z,28.60
2022-12-11T18:01:24.174Z,22.50
2022-12-11T18:03:52.678Z,24.40
2022-12-11T18:06:28.445Z,23.90
2022-12-11T18:08:57.892Z,21.20
2022-12-11T18:11:35.458Z,19.20
2022-12-11T18:14:03.734Z,20.60
2022-12-11T18:16:38.127Z,18.40
2022-12-11T18:19:08.551Z,19.00
2022-12-11T18:21:45.084Z,18.00
2022-12-11T18:24:13.677Z,19.50
2022-12-11T18:26:49.027Z,19.00
2022-12-11T18:29:18.069Z,22.80
2022-12-11T18:31:49.903Z,22.40
2022-12-11T18:34:18.089Z,20.40
2022-12-11T18:36:47.582Z,24.50
2022-12-11T18:39:15.750Z,29.40
2022-12-11T18:41:58.353Z,23.30
2022-12-11T18:44:32.002Z,26.10
2022-12-11T18:47:00.156Z,25.10
2022-12-11T18:49:28.121Z,19.40
2022-12-11T18:51:57.545Z,20.00
2022-12-11T18:54:25.687Z,20.70
2022-12-11T18:56:53.870Z,23.00
2022-12-11T18:59:22.154Z,22.30
2022-12-11T19:01:50.224Z,20.90
2022-12-11T19:04:18.230Z,22.70
2022-12-11T19:06:47.638Z,23.80
2022-12-11T19:09:15.774Z,22.60
2022-12-11T19:11:44.199Z,23.80
2022-12-11T19:14:12.391Z,22.70
2022-12-11T19:16:44.157Z,21.80
2022-12-11T19:19:15.424Z,22.70
2022-12-11T19:21:43.712Z,22.10
2022-12-11T19:24:18.185Z,21.60
2022-12-11T19:26:47.124Z,23.40
2022-12-11T19:29:22.438Z,22.70
2022-12-11T19:31:50.914Z,21.30
2022-12-11T19:34:19.588Z,23.90
2022-12-11T19:36:48.453Z,21.80
2022-12-11T19:39:17.100Z,23.70
2022-12-11T19:41:45.348Z,24.80
2022-12-11T19:44:13.484Z,24.30
2022-12-11T19:46:41.733Z,19.50
2022-12-11T19:49:11.919Z,27.60
2022-12-11T19:51:42.312Z,26.60
2022-12-11T19:54:14.614Z,26.70
2022-12-11T19:56:42.989Z,26.40
2022-12-11T19:59:19.004Z,23.00
2022-12-11T20:01:50.532Z,25.50
2022-12-11T20:04:18.813Z,31.30
2022-12-11T20:06:47.397Z,30.70
2022-12-11T20:09:15.721Z,33.10
2022-12-11T20:11:45.631Z,28.90
2022-12-11T20:14:23.794Z,24.00
2022-12-11T20:17:10.845Z,24.60
2022-12-11T20:19:40.378Z,24.30
2022-12-11T20:22:09.541Z,24.70
2022-12-11T20:24:37.532Z,27.10
2022-12-11T20:27:05.845Z,30.30
2022-12-11T20:29:37.969Z,22.30
2022-12-11T20:32:07.463Z,21.60
2022-12-11T20:34:36.082Z,22.00
2022-12-11T20:37:04.734Z,24.50
2022-12-11T20:39:32.697Z,26.60
2022-12-11T20:42:04.832Z,20.20
2022-12-11T20:44:33.095Z,24.30
2022-12-11T20:47:01.543Z,20.30
2022-12-11T20:49:29.726Z,26.00
2022-12-11T20:51:57.979Z,23.60
2022-12-11T20:54:26.342Z,26.60
2022-12-11T20:56:54.557Z,26.70
2022-12-11T20:59:23.724Z,23.20
2022-12-11T21:01:52.165Z,26.50
2022-12-11T21:04:20.768Z,25.50
2022-12-11T21:06:55.471Z,26.70
2022-12-11T21:09:26.868Z,29.20
2022-12-11T21:11:58.465Z,24.70
2022-12-11T21:14:27.948Z,26.20
2022-12-11T21:16:56.059Z,22.10
2022-12-11T21:19:25.103Z,20.70
2022-12-11T21:21:54.433Z,21.40
2022-12-11T21:24:28.263Z,22.40
2022-12-11T21:26:59.503Z,17.20
2022-12-11T21:29:29.763Z,20.90
2022-12-11T21:31:58.412Z,20.00
2022-12-11T21:34:27.223Z,22.40
2022-12-11T21:36:57.333Z,19.50
2022-12-11T21:39:26.839Z,22.90
2022-12-11T21:41:54.898Z,22.30
2022-12-11T21:47:11.707Z,20.50
2022-12-11T21:49:39.882Z,23.30
2022-12-11T21:52:09.400Z,20.50
2022-12-11T21:54:39.230Z,24.40
2022-12-11T21:57:07.796Z,22.10
2022-12-11T21:59:38.834Z,24.90
2022-12-11T22:02:07.823Z,21.00
2022-12-11T22:04:39.428Z,20.10
2022-12-11T22:07:07.481Z,21.00
2022-12-11T22:09:35.629Z,23.20
2022-12-11T22:12:03.933Z,22.00
2022-12-11T22:14:32.016Z,19.90
2022-12-11T22:17:00.887Z,18.90
2022-12-11T22:19:32.500Z,21.10
2022-12-11T22:22:01.307Z,19.10
2022-12-11T22:24:31.981Z,20.80
2022-12-11T22:27:01.329Z,19.60
2022-12-11T22:29:29.568Z,22.90
2022-12-11T22:31:58.523Z,22.50
2022-12-11T22:34:26.634Z,23.40
2022-12-11T22:36:54.751Z,21.80
2022-12-11T22:39:24.720Z,22.60
2022-12-11T22:41:52.725Z,28.50
2022-12-11T22:44:21.731Z,25.10
2022-12-11T22:46:50.774Z,24.10
2022-12-11T22:49:19.940Z,27.10
2022-12-11T22:51:49.303Z,33.10
2022-12-11T22:54:17.398Z,27.50
2022-12-11T22:56:45.429Z,24.80
2022-12-11T22:59:13.856Z,28.60
2022-12-11T23:01:41.999Z,33.30
2022-12-11T23:04:10.069Z,27.30
2022-12-11T23:06:38.456Z,30.90
2022-12-11T23:09:06.535Z,31.20
2022-12-11T23:11:37.445Z,29.90
2022-12-11T23:14:08.292Z,28.10
2022-12-11T23:16:36.367Z,30.30
2022-12-11T23:19:04.408Z,28.40
2022-12-11T23:21:33.052Z,29.20
2022-12-11T23:24:04.134Z,25.20
2022-12-11T23:26:32.804Z,24.00
2022-12-11T23:29:01.883Z,24.60
2022-12-11T23:31:30.902Z,27.80
2022-12-11T23:33:59.565Z,28.10
2022-12-11T23:36:30.814Z,28.10
2022-12-11T23:38:59.059Z,30.60
2022-12-11T23:41:27.073Z,31.40
2022-12-11T23:43:55.175Z,27.40
2022-12-11T23:46:25.158Z,30.00
2022-12-11T23:48:53.846Z,25.70
2022-12-11T23:51:23.861Z,26.80
2022-12-11T23:53:52.562Z,23.70
2022-12-11T23:56:24.019Z,22.80
2022-12-11T23:58:52.799Z,22.90
